createdAt,value
2016-12-01T00:00:14.586Z,0
2016-12-01T00:01:28.629Z,0
2016-12-01T00:02:43.090Z,0
2016-12-01T00:03:57.581Z,0
2016-12-01T00:05:11.446Z,0
2016-12-01T00:06:25.363Z,0
2016-12-01T00:07:40.023Z,0
2016-12-01T00:08:54.874Z,0
2016-12-01T00:10:09.652Z,0
2016-12-01T00:11:23.379Z,0
2016-12-01T00:12:37.379Z,0
2016-12-01T00:13:53.960Z,0
2016-12-01T00:15:08.647Z,0
2016-12-01T00:16:23.861Z,0
2016-12-01T00:17:39.548Z,0
2016-12-01T00:18:53.516Z,0
2016-12-01T00:20:07.854Z,0
2016-12-01T00:21:22.487Z,0
2016-12-01T00:22:37.237Z,0
2016-12-01T00:24:06.766Z,0
2016-12-01T00:25:20.692Z,0
2016-12-01T00:26:34.905Z,0
2016-12-01T00:27:50.035Z,0
2016-12-01T00:29:04.627Z,0
2016-12-01T00:30:19.387Z,0
2016-12-01T00:31:33.263Z,0
2016-12-01T00:32:47.530Z,0
2016-12-01T00:34:02.220Z,0
2016-12-01T00:35:16.949Z,0
2016-12-01T00:36:32.532Z,0
2016-12-01T00:37:46.326Z,0
2016-12-01T00:39:00.707Z,0
2016-12-01T00:40:15.577Z,0
2016-12-01T00:41:30.660Z,0
2016-12-01T00:42:45.764Z,0
2016-12-01T00:43:59.928Z,0
2016-12-01T00:45:14.048Z,0
2016-12-01T00:46:28.981Z,0
2016-12-01T00:47:43.472Z,0
2016-12-01T00:48:57.377Z,0
2016-12-01T00:50:12.262Z,0
2016-12-01T00:51:26.686Z,0
2016-12-01T00:52:41.496Z,0
2016-12-01T00:53:56.475Z,0
2016-12-01T00:55:10.550Z,0
2016-12-01T00:56:24.480Z,0
2016-12-01T00:57:38.436Z,0
2016-12-01T00:58:52.617Z,0
2016-12-01T01:00:06.804Z,0
2016-12-01T01:01:20.697Z,0
2016-12-01T01:02:34.984Z,0
2016-12-01T01:03:50.248Z,0
2016-12-01T01:05:04.358Z,0
2016-12-01T01:06:18.041Z,0
2016-12-01T01:07:32.352Z,0
2016-12-01T01:08:46.680Z,0
2016-12-01T01:10:01.342Z,0
2016-12-01T01:11:15.980Z,0
2016-12-01T01:12:30.251Z,0
2016-12-01T01:13:44.800Z,0
2016-12-01T01:14:59.241Z,0
2016-12-01T01:16:13.844Z,0
2016-12-01T01:17:28.560Z,0
2016-12-01T01:18:43.165Z,0
2016-12-01T01:19:57.008Z,0
2016-12-01T01:21:11.618Z,0
2016-12-01T01:22:26.033Z,0
2016-12-01T01:23:40.723Z,0
2016-12-01T01:24:55.082Z,0
2016-12-01T01:26:08.999Z,0
2016-12-01T01:27:23.194Z,0
2016-12-01T01:28:37.148Z,0
2016-12-01T01:29:51.573Z,0
2016-12-01T01:31:08.083Z,0
2016-12-01T01:32:22.275Z,0
2016-12-01T01:33:36.684Z,0
2016-12-01T01:34:50.751Z,0
2016-12-01T01:36:05.173Z,0
2016-12-01T01:37:19.350Z,0
2016-12-01T01:38:34.055Z,0
2016-12-01T01:39:47.734Z,0
2016-12-01T01:41:01.802Z,0
2016-12-01T01:42:16.436Z,0
2016-12-01T01:43:31.387Z,0
2016-12-01T01:44:45.814Z,0
2016-12-01T01:46:00.012Z,0
2016-12-01T01:47:13.785Z,0
2016-12-01T01:48:27.906Z,0
2016-12-01T01:49:42.941Z,0
2016-12-01T01:50:57.143Z,0
2016-12-01T01:52:25.926Z,0
2016-12-01T01:53:40.635Z,0
2016-12-01T01:54:55.040Z,0
2016-12-01T01:56:09.352Z,0
2016-12-01T01:57:53.080Z,0
2016-12-01T01:59:07.489Z,0
2016-12-01T02:00:21.722Z,0
2016-12-01T02:01:36.007Z,0
2016-12-01T02:02:50.090Z,0
2016-12-01T02:04:04.318Z,0
2016-12-01T02:05:18.269Z,0
2016-12-01T02:06:32.907Z,0
2016-12-01T02:08:02.054Z,0
2016-12-01T02:09:15.964Z,0
2016-12-01T02:10:30.205Z,0
2016-12-01T02:11:44.373Z,0
2016-12-01T02:12:58.774Z,0
2016-12-01T02:14:12.524Z,0
2016-12-01T02:15:26.780Z,0
2016-12-01T02:16:40.985Z,0
2016-12-01T02:17:55.929Z,0
2016-12-01T02:19:10.512Z,0
2016-12-01T02:20:24.443Z,0
2016-12-01T02:21:39.080Z,0
2016-12-01T02:22:53.304Z,0
2016-12-01T02:24:07.647Z,0
2016-12-01T02:25:22.346Z,0
2016-12-01T02:26:36.268Z,0
2016-12-01T02:27:50.458Z,0
2016-12-01T02:29:05.427Z,0
2016-12-01T02:30:19.590Z,0
2016-12-01T02:31:34.205Z,0
2016-12-01T02:32:48.147Z,0
2016-12-01T02:34:02.986Z,0
2016-12-01T02:35:17.925Z,0
2016-12-01T02:36:32.459Z,0
2016-12-01T02:37:46.605Z,0
2016-12-01T02:39:00.396Z,0
2016-12-01T02:40:14.316Z,0
2016-12-01T02:41:28.973Z,0
2016-12-01T02:42:42.919Z,0
2016-12-01T02:43:56.784Z,0
2016-12-01T02:45:10.641Z,0
2016-12-01T02:49:36.517Z,0
2016-12-01T02:50:53.185Z,0
2016-12-01T02:52:07.525Z,0
2016-12-01T02:53:21.970Z,0
2016-12-01T02:54:35.796Z,0
2016-12-01T02:55:49.808Z,0
2016-12-01T02:57:03.757Z,0
2016-12-01T02:58:18.326Z,0
2016-12-01T02:59:32.782Z,0
2016-12-01T03:00:46.794Z,0
2016-12-01T03:02:00.852Z,0
2016-12-01T03:03:14.765Z,0
2016-12-01T03:04:43.389Z,0
2016-12-01T03:05:57.991Z,0
2016-12-01T03:07:12.051Z,0
2016-12-01T03:08:25.777Z,0
2016-12-01T03:09:39.550Z,0
2016-12-01T03:10:53.576Z,0
2016-12-01T03:13:36.755Z,0
2016-12-01T03:14:50.607Z,0
2016-12-01T03:16:04.602Z,0
2016-12-01T03:17:18.485Z,0
2016-12-01T03:18:32.372Z,0
2016-12-01T03:19:46.958Z,0
2016-12-01T03:21:01.044Z,0
2016-12-01T03:22:15.076Z,0
2016-12-01T03:23:29.050Z,0
2016-12-01T03:24:42.935Z,0
2016-12-01T03:25:57.472Z,0
2016-12-01T03:27:11.396Z,0
2016-12-01T03:28:25.430Z,0
2016-12-01T03:29:39.692Z,0
2016-12-01T03:30:54.354Z,0
2016-12-01T03:32:08.591Z,0
2016-12-01T03:33:22.496Z,0
2016-12-01T03:34:36.512Z,0
2016-12-01T03:35:50.311Z,0
2016-12-01T03:37:04.722Z,0
2016-12-01T03:38:19.281Z,0
2016-12-01T03:39:33.581Z,0
2016-12-01T03:40:47.414Z,0
2016-12-01T03:42:01.490Z,0
2016-12-01T03:43:15.655Z,0
2016-12-01T03:44:30.181Z,0
2016-12-01T03:45:43.981Z,0
2016-12-01T03:46:57.652Z,0
2016-12-01T03:48:11.566Z,0
2016-12-01T03:49:25.985Z,0
2016-12-01T03:50:39.883Z,0
2016-12-01T03:51:54.036Z,0
2016-12-01T03:53:08.447Z,0
2016-12-01T03:54:22.145Z,0
2016-12-01T03:55:36.108Z,0
2016-12-01T03:56:50.122Z,0
2016-12-01T03:58:03.904Z,0
2016-12-01T03:59:18.072Z,0
2016-12-01T04:00:32.383Z,0
2016-12-01T04:01:46.277Z,0
2016-12-01T04:03:00.732Z,0
2016-12-01T04:04:14.525Z,0
2016-12-01T04:05:28.276Z,0
2016-12-01T04:06:42.455Z,0
2016-12-01T04:07:58.741Z,0
2016-12-01T04:09:12.710Z,0
2016-12-01T04:10:26.627Z,0
2016-12-01T04:11:40.931Z,0
2016-12-01T04:12:54.950Z,0
2016-12-01T04:14:09.292Z,0
2016-12-01T04:15:24.143Z,0
2016-12-01T04:16:38.000Z,0
2016-12-01T04:17:51.786Z,0
2016-12-01T04:19:05.661Z,0
2016-12-01T04:20:19.889Z,0
2016-12-01T04:21:34.014Z,0
2016-12-01T04:22:48.064Z,0
2016-12-01T04:24:01.983Z,0
2016-12-01T04:25:15.764Z,0
2016-12-01T04:26:30.086Z,0
2016-12-01T04:27:44.193Z,0
2016-12-01T04:28:58.511Z,0
2016-12-01T04:30:12.321Z,0
2016-12-01T04:31:26.237Z,0
2016-12-01T04:32:42.477Z,0
2016-12-01T04:33:57.009Z,0
2016-12-01T04:35:11.528Z,0
2016-12-01T04:36:25.985Z,0
2016-12-01T04:37:40.010Z,0
2016-12-01T04:38:54.567Z,0
2016-12-01T04:40:09.284Z,0
2016-12-01T04:41:23.592Z,0
2016-12-01T04:42:38.200Z,0
2016-12-01T04:43:52.552Z,0
2016-12-01T04:45:06.574Z,0
2016-12-01T04:46:21.218Z,0
2016-12-01T04:47:35.619Z,0
2016-12-01T04:48:49.829Z,0
2016-12-01T04:50:05.078Z,0
2016-12-01T04:51:19.437Z,0
2016-12-01T04:52:34.359Z,0
2016-12-01T04:53:48.241Z,0
2016-12-01T04:55:02.271Z,0
2016-12-01T04:56:16.298Z,0
2016-12-01T04:57:30.503Z,0
2016-12-01T04:58:44.885Z,0
2016-12-01T04:59:59.316Z,0
2016-12-01T05:01:13.119Z,0
2016-12-01T05:02:27.842Z,0
2016-12-01T05:03:41.775Z,0
2016-12-01T05:04:56.665Z,0
2016-12-01T05:06:11.021Z,0
2016-12-01T05:07:25.308Z,0
2016-12-01T05:08:39.626Z,0
2016-12-01T05:10:08.742Z,0
2016-12-01T05:11:23.867Z,0
2016-12-01T05:12:38.388Z,0
2016-12-01T05:13:52.479Z,0
2016-12-01T05:15:21.232Z,0
2016-12-01T05:16:35.507Z,0
2016-12-01T05:17:49.764Z,0
2016-12-01T05:19:04.206Z,0
2016-12-01T05:20:18.466Z,0
2016-12-01T05:21:32.279Z,0
2016-12-01T05:22:46.445Z,0
2016-12-01T05:24:01.173Z,0
2016-12-01T05:25:17.888Z,0
2016-12-01T05:26:32.184Z,0
2016-12-01T05:27:46.285Z,0
2016-12-01T05:29:00.400Z,0
2016-12-01T05:30:14.984Z,0
2016-12-01T05:31:43.828Z,0
2016-12-01T05:32:58.262Z,0
2016-12-01T05:34:12.483Z,0
2016-12-01T05:35:26.254Z,0
2016-12-01T05:36:40.049Z,0
2016-12-01T05:37:53.905Z,0
2016-12-01T05:39:07.923Z,0
2016-12-01T05:40:21.844Z,0
2016-12-01T05:41:36.251Z,0
2016-12-01T05:42:50.203Z,0
2016-12-01T05:44:04.643Z,0
2016-12-01T05:45:19.090Z,0
2016-12-01T05:46:34.317Z,0
2016-12-01T05:47:48.991Z,0
2016-12-01T05:49:03.573Z,0
2016-12-01T05:50:17.998Z,0
2016-12-01T05:51:32.097Z,0
2016-12-01T05:52:47.298Z,0
2016-12-01T05:54:02.421Z,0
2016-12-01T05:55:16.575Z,0
2016-12-01T05:56:31.760Z,0
2016-12-01T05:57:45.938Z,0
2016-12-01T05:58:59.934Z,0
2016-12-01T06:00:14.659Z,0
2016-12-01T06:01:28.648Z,0
2016-12-01T06:02:42.754Z,0
2016-12-01T06:03:57.695Z,0
2016-12-01T06:05:12.581Z,0
2016-12-01T06:06:26.378Z,0
2016-12-01T06:07:40.934Z,0
2016-12-01T06:08:55.513Z,0
2016-12-01T06:10:09.695Z,0
2016-12-01T06:11:24.453Z,0
2016-12-01T06:12:38.489Z,0
2016-12-01T06:13:52.577Z,0
2016-12-01T06:15:07.229Z,0
2016-12-01T06:16:21.741Z,0
2016-12-01T06:17:52.413Z,0
2016-12-01T06:19:06.444Z,0
2016-12-01T06:20:21.083Z,0
2016-12-01T06:21:34.858Z,0
2016-12-01T06:22:50.369Z,0
2016-12-01T06:24:05.271Z,0
2016-12-01T06:25:19.588Z,0
2016-12-01T06:26:33.897Z,0
2016-12-01T06:27:47.922Z,0
2016-12-01T06:29:02.355Z,0
2016-12-01T06:30:16.896Z,0
2016-12-01T06:31:31.044Z,0
2016-12-01T06:32:44.940Z,0
2016-12-01T06:35:29.056Z,0
2016-12-01T06:36:43.309Z,0
2016-12-01T06:37:57.858Z,0
2016-12-01T06:39:11.937Z,0
2016-12-01T06:40:25.986Z,0
2016-12-01T06:41:40.493Z,0
2016-12-01T06:42:57.267Z,0
2016-12-01T06:44:11.191Z,4
2016-12-01T06:45:25.103Z,4
2016-12-01T06:46:39.257Z,4
2016-12-01T06:47:53.575Z,4
2016-12-01T06:49:07.648Z,4
2016-12-01T06:50:22.516Z,8
2016-12-01T06:51:36.614Z,8
2016-12-01T06:52:50.798Z,4
2016-12-01T06:54:04.965Z,8
2016-12-01T06:55:19.269Z,8
2016-12-01T06:56:33.388Z,8
2016-12-01T06:57:47.438Z,12
2016-12-01T06:59:01.532Z,12
2016-12-01T07:00:15.713Z,12
2016-12-01T07:01:29.593Z,16
2016-12-01T07:02:43.956Z,16
2016-12-01T07:03:58.263Z,16
2016-12-01T07:05:12.312Z,20
2016-12-01T07:06:26.397Z,20
2016-12-01T07:07:40.455Z,24
2016-12-01T07:09:09.487Z,28
2016-12-01T07:10:23.881Z,28
2016-12-01T07:11:38.152Z,32
2016-12-01T07:12:52.348Z,32
2016-12-01T07:14:07.758Z,36
2016-12-01T07:15:21.888Z,40
2016-12-01T07:16:36.451Z,44
2016-12-01T07:17:50.729Z,44
2016-12-01T07:19:08.343Z,48
2016-12-01T07:20:24.714Z,52
2016-12-01T07:21:39.016Z,56
2016-12-01T07:22:53.176Z,60
2016-12-01T07:24:07.598Z,64
2016-12-01T07:25:21.292Z,68
2016-12-01T07:26:35.232Z,72
2016-12-01T07:27:49.692Z,72
2016-12-01T07:29:04.015Z,84
2016-12-01T07:30:18.384Z,88
2016-12-01T07:31:32.644Z,96
2016-12-01T07:32:46.792Z,108
2016-12-01T07:34:01.393Z,116
2016-12-01T07:35:30.502Z,124
2016-12-01T07:36:45.448Z,136
2016-12-01T07:37:59.303Z,140
2016-12-01T07:39:13.233Z,140
2016-12-01T07:40:27.552Z,140
2016-12-01T07:41:41.268Z,152
2016-12-01T07:42:55.636Z,156
2016-12-01T07:44:09.578Z,160
2016-12-01T07:45:23.449Z,176
2016-12-01T07:46:37.992Z,184
2016-12-01T07:47:52.338Z,200
2016-12-01T07:49:06.500Z,212
2016-12-01T07:50:20.242Z,220
2016-12-01T07:51:33.970Z,232
2016-12-01T07:52:48.270Z,240
2016-12-01T07:54:16.896Z,256
2016-12-01T07:55:45.984Z,264
2016-12-01T07:57:00.378Z,268
2016-12-01T07:58:14.763Z,280
2016-12-01T07:59:28.957Z,284
2016-12-01T08:00:45.398Z,296
2016-12-01T08:01:59.852Z,300
2016-12-01T08:03:13.978Z,312
2016-12-01T08:04:42.765Z,356
2016-12-01T08:05:57.024Z,384
2016-12-01T08:07:11.244Z,388
2016-12-01T08:08:25.963Z,408
2016-12-01T08:09:39.745Z,396
2016-12-01T08:10:54.602Z,412
2016-12-01T08:12:08.968Z,436
2016-12-01T08:13:22.925Z,436
2016-12-01T08:14:51.682Z,440
2016-12-01T08:16:20.869Z,496
2016-12-01T08:17:34.989Z,512
2016-12-01T08:18:49.224Z,536
2016-12-01T08:20:03.198Z,516
2016-12-01T08:21:17.076Z,524
2016-12-01T08:22:31.145Z,560
2016-12-01T08:23:44.831Z,580
2016-12-01T08:24:59.663Z,592
2016-12-01T08:26:13.611Z,560
2016-12-01T08:27:27.738Z,484
2016-12-01T08:28:41.712Z,488
2016-12-01T08:29:55.621Z,460
2016-12-01T08:31:25.067Z,500
2016-12-01T08:32:38.986Z,524
2016-12-01T08:33:54.130Z,536
2016-12-01T08:35:08.115Z,568
2016-12-01T08:36:22.171Z,532
2016-12-01T08:37:37.025Z,520
2016-12-01T08:38:50.822Z,504
2016-12-01T08:40:05.287Z,492
2016-12-01T08:41:19.527Z,468
2016-12-01T08:42:33.949Z,448
2016-12-01T08:43:48.457Z,428
2016-12-01T08:45:17.019Z,416
2016-12-01T08:46:30.999Z,404
2016-12-01T08:47:45.322Z,392
2016-12-01T08:49:00.188Z,384
2016-12-01T08:50:14.577Z,372
2016-12-01T08:51:28.616Z,372
2016-12-01T08:52:42.643Z,372
2016-12-01T08:53:56.542Z,360
2016-12-01T08:55:10.707Z,380
2016-12-01T08:56:24.375Z,400
2016-12-01T08:57:38.826Z,412
2016-12-01T08:58:53.211Z,464
2016-12-01T09:00:07.737Z,540
2016-12-01T09:01:22.216Z,528
2016-12-01T09:02:35.889Z,596
2016-12-01T09:03:50.653Z,664
2016-12-01T09:05:04.679Z,720
2016-12-01T09:06:18.578Z,672
2016-12-01T09:07:32.767Z,616
2016-12-01T09:09:01.819Z,616
2016-12-01T09:10:16.496Z,660
2016-12-01T09:11:30.783Z,640
2016-12-01T09:12:44.724Z,624
2016-12-01T09:13:59.026Z,728
2016-12-01T09:15:13.177Z,680
2016-12-01T09:16:27.492Z,680
2016-12-01T09:17:41.264Z,576
2016-12-01T09:18:57.439Z,476
2016-12-01T09:20:11.910Z,560
2016-12-01T09:21:25.847Z,592
2016-12-01T09:22:40.052Z,664
2016-12-01T09:23:54.137Z,748
2016-12-01T09:25:07.840Z,648
2016-12-01T09:26:22.065Z,644
2016-12-01T09:27:36.012Z,756
2016-12-01T09:28:49.894Z,772
2016-12-01T09:30:04.327Z,824
2016-12-01T09:31:18.530Z,756
2016-12-01T09:32:47.460Z,832
2016-12-01T09:34:01.398Z,844
2016-12-01T09:35:15.754Z,812
2016-12-01T09:36:30.088Z,852
2016-12-01T09:37:44.279Z,832
2016-12-01T09:39:13.539Z,820
2016-12-01T09:40:27.579Z,844
2016-12-01T09:41:41.567Z,876
2016-12-01T09:42:55.553Z,876
2016-12-01T09:44:09.740Z,840
2016-12-01T09:45:23.924Z,888
2016-12-01T09:46:38.068Z,896
2016-12-01T09:47:52.030Z,932
2016-12-01T09:49:06.145Z,948
2016-12-01T09:50:20.716Z,872
2016-12-01T09:51:34.888Z,980
2016-12-01T09:52:50.057Z,988
2016-12-01T09:54:03.942Z,924
2016-12-01T09:55:18.400Z,1016
2016-12-01T09:56:32.120Z,1060
2016-12-01T09:57:46.452Z,1072
2016-12-01T09:59:00.637Z,1112
2016-12-01T10:00:15.025Z,1104
2016-12-01T10:01:29.266Z,1104
2016-12-01T10:02:43.612Z,1092
2016-12-01T10:03:58.193Z,1072
2016-12-01T10:05:12.614Z,780
2016-12-01T10:06:26.497Z,776
2016-12-01T10:07:40.659Z,988
2016-12-01T10:08:54.734Z,1104
2016-12-01T10:10:08.828Z,1048
2016-12-01T10:11:23.061Z,1104
2016-12-01T10:12:36.932Z,1028
2016-12-01T10:13:51.069Z,984
2016-12-01T10:15:04.915Z,1008
2016-12-01T10:16:18.893Z,1028
2016-12-01T10:17:32.983Z,1056
2016-12-01T10:18:47.332Z,1092
2016-12-01T10:20:01.570Z,1084
2016-12-01T10:21:16.075Z,1084
2016-12-01T10:22:30.908Z,1064
2016-12-01T10:23:44.644Z,1144
2016-12-01T10:24:58.349Z,1076
2016-12-01T10:26:12.329Z,984
2016-12-01T10:27:26.711Z,812
2016-12-01T10:28:41.327Z,828
2016-12-01T10:29:55.432Z,836
2016-12-01T10:31:09.429Z,860
2016-12-01T10:32:24.372Z,872
2016-12-01T10:33:38.499Z,816
2016-12-01T10:34:53.369Z,848
2016-12-01T10:36:10.449Z,844
2016-12-01T10:37:24.796Z,868
2016-12-01T10:38:38.912Z,952
2016-12-01T10:39:52.942Z,1040
2016-12-01T10:41:07.441Z,1120
2016-12-01T10:42:21.750Z,1164
2016-12-01T10:43:35.992Z,1136
2016-12-01T10:44:50.624Z,1140
2016-12-01T10:46:05.240Z,1172
2016-12-01T10:47:19.996Z,1120
2016-12-01T10:48:34.220Z,1116
2016-12-01T10:49:48.721Z,1064
2016-12-01T10:51:03.223Z,1048
2016-12-01T10:52:17.582Z,1216
2016-12-01T10:53:32.083Z,1284
2016-12-01T10:54:45.912Z,1300
2016-12-01T10:55:59.986Z,1280
2016-12-01T10:57:14.236Z,1236
2016-12-01T10:58:29.148Z,1180
2016-12-01T10:59:43.679Z,1080
2016-12-01T11:00:57.660Z,996
2016-12-01T11:02:26.226Z,876
2016-12-01T11:03:39.966Z,880
2016-12-01T11:04:53.966Z,856
2016-12-01T11:06:08.096Z,988
2016-12-01T11:07:22.025Z,1076
2016-12-01T11:08:36.287Z,1092
2016-12-01T11:09:50.283Z,1276
2016-12-01T11:11:04.390Z,1060
2016-12-01T11:12:18.538Z,1064
2016-12-01T11:13:32.483Z,1168
2016-12-01T11:14:46.415Z,1156
2016-12-01T11:16:00.620Z,1192
2016-12-01T11:17:14.843Z,1272
2016-12-01T11:18:29.319Z,1360
2016-12-01T11:19:43.726Z,1312
2016-12-01T11:20:58.409Z,1284
2016-12-01T11:22:13.247Z,1276
2016-12-01T11:23:28.249Z,1280
2016-12-01T11:24:42.836Z,1208
2016-12-01T11:26:00.003Z,1212
2016-12-01T11:27:17.522Z,1104
2016-12-01T11:28:32.253Z,1160
2016-12-01T11:29:46.532Z,1216
2016-12-01T11:31:02.941Z,1380
2016-12-01T11:32:17.631Z,1432
2016-12-01T11:33:31.967Z,1520
2016-12-01T11:34:46.199Z,1516
2016-12-01T11:36:00.158Z,1500
2016-12-01T11:37:15.405Z,1604
2016-12-01T11:38:30.048Z,1844
2016-12-01T11:39:44.291Z,1956
2016-12-01T11:40:58.554Z,1780
2016-12-01T11:42:12.895Z,1776
2016-12-01T11:43:27.235Z,1708
2016-12-01T11:44:41.817Z,1740
2016-12-01T11:45:56.971Z,1564
2016-12-01T11:48:55.020Z,1188
2016-12-01T11:50:33.254Z,1260
2016-12-01T11:51:58.885Z,1176
2016-12-01T11:53:35.364Z,1120
2016-12-01T11:55:06.450Z,1224
2016-12-01T11:56:33.216Z,1212
2016-12-01T11:57:56.319Z,1084
2016-12-01T11:59:19.478Z,1212
2016-12-01T12:00:43.182Z,1196
2016-12-01T12:02:21.966Z,1200
2016-12-01T12:03:41.333Z,1312
2016-12-01T12:05:03.045Z,1304
2016-12-01T12:06:24.713Z,1384
2016-12-01T12:07:59.408Z,1268
2016-12-01T12:09:17.703Z,1208
2016-12-01T12:10:33.376Z,1028
2016-12-01T12:11:49.884Z,952
2016-12-01T12:13:06.758Z,908
2016-12-01T12:14:21.033Z,880
2016-12-01T12:15:34.970Z,824
2016-12-01T12:16:49.643Z,880
2016-12-01T12:18:04.801Z,912
2016-12-01T12:19:19.843Z,908
2016-12-01T12:20:34.646Z,928
2016-12-01T12:21:48.657Z,972
2016-12-01T12:23:02.956Z,980
2016-12-01T12:24:18.435Z,960
2016-12-01T12:25:32.588Z,980
2016-12-01T12:26:47.125Z,848
2016-12-01T12:28:01.215Z,764
2016-12-01T12:29:15.953Z,696
2016-12-01T12:30:31.117Z,700
2016-12-01T12:31:45.428Z,772
2016-12-01T12:32:59.865Z,884
2016-12-01T12:34:14.364Z,908
2016-12-01T12:35:28.883Z,920
2016-12-01T12:36:44.413Z,804
2016-12-01T12:37:59.073Z,804
2016-12-01T12:39:13.408Z,824
2016-12-01T12:40:28.714Z,828
2016-12-01T12:41:43.264Z,792
2016-12-01T12:42:57.978Z,724
2016-12-01T12:44:12.269Z,820
2016-12-01T12:45:26.053Z,780
2016-12-01T12:46:40.179Z,796
2016-12-01T12:48:09.242Z,764
2016-12-01T12:49:24.397Z,732
2016-12-01T12:50:38.703Z,680
2016-12-01T12:51:53.091Z,664
2016-12-01T12:53:07.699Z,504
2016-12-01T12:54:22.464Z,476
2016-12-01T12:55:36.473Z,488
2016-12-01T12:56:50.264Z,528
2016-12-01T12:58:04.198Z,540
2016-12-01T12:59:18.616Z,556
2016-12-01T13:00:33.219Z,580
2016-12-01T13:01:47.389Z,620
2016-12-01T13:03:01.171Z,576
2016-12-01T13:04:15.725Z,596
2016-12-01T13:05:30.061Z,712
2016-12-01T13:06:44.847Z,660
2016-12-01T13:07:59.041Z,624
2016-12-01T13:09:13.360Z,616
2016-12-01T13:10:27.151Z,632
2016-12-01T13:11:41.403Z,608
2016-12-01T13:12:55.557Z,660
2016-12-01T13:14:12.479Z,788
2016-12-01T13:15:26.563Z,876
2016-12-01T13:16:40.627Z,836
2016-12-01T13:18:09.852Z,820
2016-12-01T13:19:24.028Z,800
2016-12-01T13:20:37.768Z,808
2016-12-01T13:21:52.338Z,796
2016-12-01T13:23:06.296Z,820
2016-12-01T13:24:20.327Z,800
2016-12-01T13:25:34.351Z,872
2016-12-01T13:26:48.882Z,816
2016-12-01T13:28:03.279Z,756
2016-12-01T13:29:17.624Z,752
2016-12-01T13:30:31.351Z,760
2016-12-01T13:31:45.775Z,724
2016-12-01T13:32:59.473Z,764
2016-12-01T13:34:14.342Z,772
2016-12-01T13:35:28.866Z,796
2016-12-01T13:36:42.844Z,928
2016-12-01T13:37:57.376Z,1084
2016-12-01T13:39:11.505Z,1036
2016-12-01T13:40:25.990Z,1112
2016-12-01T13:41:55.174Z,1080
2016-12-01T13:43:09.850Z,952
2016-12-01T13:44:24.314Z,792
2016-12-01T13:45:38.460Z,704
2016-12-01T13:46:53.040Z,740
2016-12-01T13:48:07.186Z,644
2016-12-01T13:49:21.460Z,596
2016-12-01T13:50:36.110Z,652
2016-12-01T13:51:50.280Z,760
2016-12-01T13:53:05.043Z,704
2016-12-01T13:54:19.250Z,740
2016-12-01T13:55:33.341Z,884
2016-12-01T13:56:47.655Z,840
2016-12-01T13:58:01.868Z,800
2016-12-01T13:59:16.130Z,740
2016-12-01T14:00:30.275Z,736
2016-12-01T14:01:44.260Z,660
2016-12-01T14:02:58.431Z,652
2016-12-01T14:04:12.331Z,736
2016-12-01T14:05:26.616Z,660
2016-12-01T14:06:40.967Z,664
2016-12-01T14:07:55.184Z,668
2016-12-01T14:09:09.259Z,596
2016-12-01T14:10:23.295Z,568
2016-12-01T14:11:37.128Z,608
2016-12-01T14:12:51.662Z,584
2016-12-01T14:14:06.159Z,552
2016-12-01T14:15:20.166Z,548
2016-12-01T14:16:34.370Z,592
2016-12-01T14:17:48.329Z,632
2016-12-01T14:19:02.999Z,616
2016-12-01T14:20:17.323Z,584
2016-12-01T14:21:31.291Z,568
2016-12-01T14:22:45.472Z,572
2016-12-01T14:23:59.782Z,532
2016-12-01T14:25:13.679Z,504
2016-12-01T14:26:28.291Z,504
2016-12-01T14:27:42.287Z,460
2016-12-01T14:29:10.762Z,420
2016-12-01T14:30:24.654Z,404
2016-12-01T14:31:41.404Z,380
2016-12-01T14:32:55.316Z,356
2016-12-01T14:34:09.768Z,368
2016-12-01T14:35:23.648Z,408
2016-12-01T14:36:38.377Z,404
2016-12-01T14:37:52.431Z,408
2016-12-01T14:39:06.769Z,464
2016-12-01T14:40:21.287Z,428
2016-12-01T14:41:35.559Z,404
2016-12-01T14:42:50.054Z,376
2016-12-01T14:44:04.628Z,360
2016-12-01T14:45:19.022Z,344
2016-12-01T14:46:33.553Z,312
2016-12-01T14:47:47.590Z,284
2016-12-01T14:49:02.092Z,256
2016-12-01T14:50:16.499Z,212
2016-12-01T14:51:30.600Z,192
2016-12-01T14:52:44.754Z,204
2016-12-01T14:53:59.279Z,180
2016-12-01T14:55:13.905Z,164
2016-12-01T14:56:28.163Z,148
2016-12-01T14:57:42.174Z,128
2016-12-01T14:58:56.085Z,128
2016-12-01T15:00:10.100Z,116
2016-12-01T15:01:24.354Z,104
2016-12-01T15:02:38.868Z,104
2016-12-01T15:03:52.942Z,104
2016-12-01T15:05:07.048Z,92
2016-12-01T15:06:22.205Z,88
2016-12-01T15:07:36.165Z,80
2016-12-01T15:08:50.878Z,80
2016-12-01T15:10:05.305Z,80
2016-12-01T15:11:19.333Z,76
2016-12-01T15:12:33.430Z,68
2016-12-01T15:13:47.710Z,60
2016-12-01T15:15:02.955Z,60
2016-12-01T15:16:18.024Z,56
2016-12-01T15:17:32.492Z,44
2016-12-01T15:18:46.664Z,40
2016-12-01T15:20:01.360Z,32
2016-12-01T15:21:16.025Z,32
2016-12-01T15:22:30.737Z,28
2016-12-01T15:23:46.206Z,28
2016-12-01T15:25:00.597Z,24
2016-12-01T15:26:16.061Z,20
2016-12-01T15:27:30.196Z,20
2016-12-01T15:28:43.996Z,16
2016-12-01T15:29:58.689Z,16
2016-12-01T15:31:13.119Z,12
2016-12-01T15:32:27.811Z,8
2016-12-01T15:33:42.317Z,8
2016-12-01T15:34:56.021Z,8
2016-12-01T15:36:09.854Z,8
2016-12-01T15:37:23.694Z,4
2016-12-01T15:38:38.244Z,4
2016-12-01T15:39:53.262Z,4
2016-12-01T15:41:07.625Z,4
2016-12-01T15:42:22.154Z,4
2016-12-01T15:43:36.091Z,0
2016-12-01T15:44:50.044Z,4
2016-12-01T15:46:04.535Z,0
2016-12-01T15:47:18.730Z,0
2016-12-01T15:48:35.760Z,0
2016-12-01T15:49:49.741Z,0
2016-12-01T15:51:04.009Z,0
2016-12-01T15:52:18.607Z,0
2016-12-01T15:53:33.003Z,0
2016-12-01T15:54:47.489Z,0
2016-12-01T15:56:01.756Z,0
2016-12-01T15:57:15.826Z,0
2016-12-01T15:58:30.899Z,0
2016-12-01T15:59:45.130Z,0
2016-12-01T16:00:59.181Z,0
2016-12-01T16:02:13.348Z,0
2016-12-01T16:03:27.842Z,0
2016-12-01T16:04:43.423Z,0
2016-12-01T16:05:58.081Z,0
2016-12-01T16:07:33.795Z,0
2016-12-01T16:09:15.889Z,0
2016-12-01T16:10:41.901Z,0
2016-12-01T16:12:09.581Z,0
2016-12-01T16:13:25.379Z,0
2016-12-01T16:14:42.956Z,0
2016-12-01T16:15:57.352Z,0
2016-12-01T16:17:13.658Z,0
2016-12-01T16:18:28.458Z,0
2016-12-01T16:19:42.689Z,0
2016-12-01T16:20:56.647Z,0
2016-12-01T16:22:11.185Z,0
2016-12-01T16:23:25.054Z,0
2016-12-01T16:24:39.075Z,0
2016-12-01T16:25:53.304Z,0
2016-12-01T16:27:07.835Z,0
2016-12-01T16:28:23.865Z,0
2016-12-01T16:29:38.012Z,0
2016-12-01T16:30:52.134Z,0
2016-12-01T16:32:20.984Z,0
2016-12-01T16:33:35.729Z,0
2016-12-01T16:34:50.440Z,0
2016-12-01T16:36:19.212Z,0
2016-12-01T16:37:47.854Z,0
2016-12-01T16:39:02.612Z,0
2016-12-01T16:40:18.333Z,0
2016-12-01T16:41:47.695Z,0
2016-12-01T16:43:01.860Z,0
2016-12-01T16:44:16.381Z,0
2016-12-01T16:45:31.644Z,0
2016-12-01T16:47:00.649Z,0
2016-12-01T16:48:14.933Z,0
2016-12-01T16:49:28.966Z,0
2016-12-01T16:50:43.540Z,0
2016-12-01T16:51:57.899Z,0
2016-12-01T16:53:11.759Z,0
2016-12-01T16:54:25.508Z,0
2016-12-01T16:55:39.234Z,0
2016-12-01T16:56:53.972Z,0
2016-12-01T16:58:07.946Z,0
2016-12-01T16:59:21.973Z,0
2016-12-01T17:00:50.629Z,0
2016-12-01T17:02:05.521Z,0
2016-12-01T17:03:19.735Z,0
2016-12-01T17:04:34.031Z,0
2016-12-01T17:05:48.292Z,0
2016-12-01T17:07:02.653Z,0
2016-12-01T17:08:19.511Z,0
2016-12-01T17:09:33.464Z,0
2016-12-01T17:10:47.481Z,0
2016-12-01T17:12:01.885Z,0
2016-12-01T17:13:16.597Z,0
2016-12-01T17:14:30.883Z,0
2016-12-01T17:15:45.262Z,0
2016-12-01T17:17:14.033Z,0
2016-12-01T17:18:27.767Z,0
2016-12-01T17:19:56.398Z,0
2016-12-01T17:21:11.047Z,0
2016-12-01T17:22:25.327Z,0
2016-12-01T17:23:57.118Z,0
2016-12-01T17:25:17.131Z,0
2016-12-01T17:26:35.403Z,0
2016-12-01T17:27:56.153Z,0
2016-12-01T17:29:13.714Z,0
2016-12-01T17:30:28.795Z,0
2016-12-01T17:31:43.702Z,0
2016-12-01T17:32:58.803Z,0
2016-12-01T17:34:13.191Z,0
2016-12-01T17:35:27.141Z,0
2016-12-01T17:36:40.923Z,0
2016-12-01T17:37:54.759Z,0
2016-12-01T17:39:08.978Z,0
2016-12-01T17:40:23.185Z,0
2016-12-01T17:41:37.295Z,0
2016-12-01T17:42:51.554Z,0
2016-12-01T17:44:06.159Z,0
2016-12-01T17:45:20.188Z,0
2016-12-01T17:46:34.723Z,0
2016-12-01T17:47:49.198Z,0
2016-12-01T17:49:03.162Z,0
2016-12-01T17:50:17.252Z,0
2016-12-01T17:51:32.167Z,0
2016-12-01T17:52:46.696Z,0
2016-12-01T17:54:01.095Z,0
2016-12-01T17:55:15.336Z,0
2016-12-01T17:56:29.620Z,0
2016-12-01T17:57:45.192Z,0
2016-12-01T17:59:00.369Z,0
2016-12-01T18:00:14.957Z,0
2016-12-01T18:01:30.113Z,0